Strona główna
METAR-TAF:

METAR-TAF

Lotnisko :

Port lotniczy Bintulu

Bintulu, Malezja

Szerokość geograficzna: 03-12N, Długość geograficzna: 113-02E, wysokość: 2 m

Aktualna obserwacja pogody

Raport powstał 13 minut temu, godzina 23:00 UTC
Wiatr 4 kt od północny wschód, zmienny między północno-północny zachód i wschód
Temperatura 26°C
Wilgotność 89%
Ciśnienie 1011 hPa
Widzialność: 6000 m
Rozproszone chmury na wysokości 1600 ft
Przerywane chmury na wysokości 15000 ft

METAR: WBGB 232300Z 04004KT 340V090 6000 SCT016 BKN150 26/24 Q1011

czas: 07:13 (23:13 UTC)

Prognoza

Raport powstał 6 godziny i 13 minut temu, godzina 17:00 UTC
Prognoza ważna od 23 godzina 18 UTC do 24 godzina 18 UTC
Wiatr 5 kt od południowy wschód
Widzialność 10 km lub więcej
Rozproszone chmury na wysokości 1600 ft

TAF: WBGB 231700Z 2318/2418 14005KT 9999 SCT016

Obserwacja i prognoza pogody dla ponad 4000 lotnisk (raport METAR i TAF).

Dostępne stacje oznaczono żółtymi i czerwonymi punktami na mapie.

Najedź kursorem aby zobaczyć nazwę stacji.

Kliknij aby zobaczyć obserwacje i prognozy pogody.

Aby zmienić mapę: kliknij na zielony przycisk z czarnym krzyżykiem, aby powiększyć; na zielony przycisk z myślnikiem, aby pomniejszyć; na zielone strzałki, aby przejść do map sąsiednich.


METAR-TAF: